Lander, WY

10:48 AM MST on February 21, 2017 (GMT -0700)
Lander Valley | | Change Station
Active Advisory: High Wind Warning Active Notice: Public Information Statement

Elev 5358 ft 42.84 °N, 108.74 °W | Updated 1 minute ago

Overcast
Overcast
51.5 °F
Feels Like 51.5 °F
N
6.8
Wind Variable Wind from South

Today
High -- | Low -- °F
--% Chance of Precip.
Yesterday
High -- | Low -- °F
Precip. -- in
Pressure 29.86 in
Visibility 10.0 miles
Clouds Scattered Clouds 4100 ft
Mostly Cloudy 6500 ft
Overcast 10000 ft
Dew Point 32 °F
Humidity 48%
Rainfall 0.00 in
Snow Depth Not available.
7:02 AM 5:54 PM
Waning Crescent, 24% visible
METAR KLND 211653Z AUTO 28013G30KT 10SM -RA SCT041 BKN065 OVC100 09/01 A2991 RMK AO2 PK WND 24039/1622 WSHFT 1639 RAB23 SLP112 P0000 T00890006
Pressure 29.86 in
Visibility 10.0 miles
Clouds Scattered Clouds 4100 ft
Mostly Cloudy 6500 ft
Overcast 10000 ft
Dew Point 32 °F
Humidity 48%
Rainfall 0.00 in
Snow Depth Not available.
7:02 AM 5:54 PM
Waning Crescent, 24% visible
METAR KLND 211653Z AUTO 28013G30KT 10SM -RA SCT041 BKN065 OVC100 09/01 A2991 RMK AO2 PK WND 24039/1622 WSHFT 1639 RAB23 SLP112 P0000 T00890006

Get Your Daily Forecast Email!

Thanks for signing up!

Be on the lookout for a verification email in your inbox.

You'll start receiving the daily forecast at 8 AM.

×

10-Day Weather Forecast

Almanac

Astronomy

Feb. 21, 2017 Rise Set
Actual Time
Civil Twilight
Nautical Twilight
Astronomical Twilight
Moon
Length of Visible Light
Length of Day
Tomorrow will be .
, % of the Moon is Illuminated

Today's Extremes

State Highs State Lows

Community

WunderPhotos

Upload Photos

1,962,540 photos uploaded!

WunderBlog® & News

Nearby

Air Quality

  Air Quality AQ Index Pollutant
Not available.

Snow Depth

Station Depth Elevation

Earthquake Activity

City Distance Mag. Time & Date
Minimum magnitude displayed is 2.5.

Coastal Water Temperatures

Place Temperature

Stations

Nearby Weather Stations

Station Location Temp. Windchill Dew Point Humidity Wind Precip. Elev Updated Type
                   

Watches & Warnings

High Wind Warning
Issued: 2:25 AM MST Feb. 21, 2017 – National Weather Service

... High Wind Warning remains in effect until 11 PM MST this
evening...

* timing... high winds are expected to mix down at times through
this evening. The strong wind speeds and gusts will come
suddenly, with possible lulls in the strong wind.

* Winds... west to southwest 30 to 40 mph with gusts to 65 mph.

* Impacts... mainly to transportation. Extreme blow over risk for
light and high profile vehicles, including along Interstate 25.

Precautionary/preparedness actions...

A High Wind Warning means a hazardous high wind event is expected
or occurring. Sustained wind speeds of at least 40 mph or gusts
of 58 mph or more can lead to property damage.



Team Riverton/21